Latest Weather Observations for Yampi Sound (Defence)

IDW60801

Issued at 10:12 pm WST Friday 23 February 2024 (issued every 10 minutes, with the page automatically refreshed every 10 minutes)

About weather observations | Map of weather stations | Latest weather observations for WA | Other Formats
Station Details ID: 003108 Name: YAMPI SOUND (DEFENCE) Lat: -16.77 Lon: 123.98 Height: 41.33 m
Data from the previous 72 hours. | See also: Recent months at Yampi Sound (Defence)
Date/Time
WST
Temp
°C
App
Temp
°C
Dew
Point
°C
Rel
Hum
%
Delta-T
°C
Wind Press
QNH
hPa
Press
MSL
hPa
Rain since
9am
mm
Dir  Spd
km/h
Gust
km/h
Spd
kts
Gust
kts
23/10:00pm 29.2 35.4 25.8 82 2.4 W 4 7 2 4 1014.7 1014.4 0.0
23/09:30pm 29.4 35.7 25.4 79 2.8 NW 2 9 1 5 1014.5 1014.2 0.0
23/09:00pm 29.5 34.8 25.0 77 3.2 NNW 6 9 3 5 1014.1 1013.8 0.0
23/08:30pm 29.8 34.6 24.4 73 3.8 NW 7 13 4 7 1014.1 1013.8 0.0
23/08:00pm 30.1 34.8 24.3 71 4.0 NNW 7 13 4 7 1013.7 1013.4 0.0
23/07:30pm 30.3 35.1 24.2 70 4.3 NNW 6 9 3 5 1013.3 1013.0 0.0
23/07:00pm 30.9 35.8 24.3 68 4.6 NW 6 13 3 7 1013.0 1012.7 0.0
23/06:30pm 31.6 36.2 24.2 65 5.2 NW 7 15 4 8 1013.0 1012.7 0.0
23/06:00pm 32.3 36.9 24.1 62 5.7 NW 7 15 4 8 1012.9 1012.6 0.0
23/05:30pm 33.3 36.9 23.0 54 7.1 NW 9 19 5 10 1012.7 1012.4 0.0
23/05:00pm 33.9 37.6 23.9 56 7.0 NW 11 19 6 10 1012.4 1012.1 0.0
23/04:30pm 34.5 38.5 24.4 55 7.1 WNW 11 22 6 12 1012.2 1011.9 0.0
23/04:00pm 35.1 38.7 24.4 54 7.6 W 13 20 7 11 1012.1 1011.8 0.0
23/03:30pm 35.5 40.1 24.1 51 8.0 WNW 7 17 4 9 1012.2 1011.9 0.0
23/03:00pm 35.5 39.3 23.5 50 8.4 W 9 19 5 10 1012.5 1012.2 0.0
23/02:30pm 36.0 39.7 24.6 52 8.1 W 13 22 7 12 1012.3 1012.0 0.0
23/02:00pm 36.0 40.1 25.2 53 7.7 WNW 13 24 7 13 1011.9 1011.6 0.0
23/01:30pm 35.3 39.8 24.6 54 7.6 NW 9 17 5 9 1012.4 1012.1 0.0
23/01:00pm 34.4 39.1 24.9 57 6.7 WNW 9 20 5 11 1012.6 1012.3 0.0
23/12:30pm 35.1 39.8 25.0 56 7.2 WNW 9 15 5 8 1013.0 1012.7 0.0
23/12:00pm 34.3 39.0 24.3 56 7.0 NW 7 15 4 8 1013.4 1013.1 0.0
23/11:30am 35.4 40.3 25.9 58 6.8 NNW 11 20 6 11 1013.7 1013.4 0.0
23/11:00am 34.7 39.6 25.2 57 6.8 NNW 9 17 5 9 1014.0 1013.7 0.0
23/10:30am 33.7 38.9 25.7 63 5.7 NNW 9 20 5 11 1014.4 1014.1 0.0
23/10:00am 33.3 38.6 25.8 65 5.4 NW 9 20 5 11 1014.6 1014.3 0.0
23/09:30am 32.1 37.1 25.4 67 4.8 NW 9 17 5 9 1014.6 1014.3 0.0
23/09:00am 31.3 37.1 26.1 74 3.7 N 7 19 4 10 1014.7 1014.4 1.8
23/08:30am 30.6 36.3 26.5 79 2.9 NNW 9 15 5 8 1014.9 1014.6 1.8
23/08:00am 29.8 36.3 26.8 84 2.2 N 6 11 3 6 1015.0 1014.7 1.8
23/07:30am 28.8 36.1 26.8 89 1.4 NE 2 7 1 4 1015.0 1014.7 1.8
23/07:00am 27.3 35.1 27.0 98 0.2 CALM 0 4 0 2 1014.5 1014.2 1.8
23/06:30am 26.7 34.1 26.5 99 0.1 CALM 0 0 0 0 1014.7 1014.4 1.8
23/06:00am 26.5 33.8 26.3 99 0.1 CALM 0 0 0 0 1014.5 1014.2 1.8
23/05:30am 26.1 33.1 25.9 99 0.1 CALM 0 0 0 0 1014.3 1014.0 1.8
23/05:00am 26.3 33.5 26.1 99 0.1 CALM 0 0 0 0 1014.0 1013.7 1.8
23/04:30am 26.4 33.6 26.2 99 0.1 CALM 0 0 0 0 1013.6 1013.3 1.8
23/04:00am 26.1 33.1 25.9 99 0.1 CALM 0 0 0 0 1013.5 1013.2 1.8
23/03:30am 26.3 33.5 26.1 99 0.1 CALM 0 0 0 0 1013.6 1013.3 1.8
23/03:00am 26.4 33.6 26.2 99 0.1 CALM 0 0 0 0 1013.7 1013.4 1.8
23/02:30am 26.4 33.6 26.1 98 0.2 CALM 0 0 0 0 1013.6 1013.3 1.8
23/02:00am 26.5 33.7 26.2 98 0.2 CALM 0 0 0 0 1013.9 1013.6 1.8
23/01:30am 26.5 33.7 26.2 98 0.2 CALM 0 0 0 0 1014.0 1013.7 1.8
23/01:00am 26.4 33.6 26.1 98 0.2 CALM 0 0 0 0 1014.3 1014.0 1.8
23/12:30am 26.5 33.7 26.2 98 0.2 CALM 0 0 0 0 1014.3 1014.0 1.8
23/12:00am 26.7 34.1 26.4 98 0.2 CALM 0 0 0 0 1014.4 1014.1 1.8
 
Date/Time
WST
Temp
°C
App
Temp
°C
Dew
Point
°C
Rel
Hum
%
Delta-T
°C
Wind Press
QNH
hPa
Press
MSL
hPa
Rain since
9am
mm
Dir  Spd
km/h
Gust
km/h
Spd
kts
Gust
kts
22/11:30pm 26.6 33.8 26.1 97 0.4 CALM 0 0 0 0 1014.2 1013.9 1.8
22/11:00pm 26.6 33.6 25.9 96 0.5 CALM 0 0 0 0 1014.3 1014.0 1.8
22/10:30pm 26.9 34.1 26.2 96 0.5 CALM 0 0 0 0 1014.4 1014.1 1.8
22/10:00pm 27.1 34.2 26.0 94 0.8 CALM 0 0 0 0 1014.5 1014.2 1.8
22/09:30pm 27.5 34.5 25.9 91 1.1 CALM 0 2 0 1 1014.3 1014.0 1.8
22/09:00pm 27.7 34.2 25.7 89 1.4 NNE 2 6 1 3 1014.1 1013.8 1.8
22/08:30pm 27.9 34.0 25.7 88 1.6 NNE 4 6 2 3 1013.9 1013.6 1.8
22/08:00pm 28.1 34.0 25.3 85 2.0 NNE 4 9 2 5 1013.5 1013.2 1.8
22/07:30pm 28.4 33.7 25.0 82 2.4 N 6 9 3 5 1013.4 1013.1 1.8
22/07:00pm 28.6 33.9 25.0 81 2.5 N 6 11 3 6 1013.2 1012.9 1.8
22/06:30pm 28.8 34.1 25.0 80 2.7 N 6 11 3 6 1012.8 1012.5 1.8
22/06:00pm 29.3 34.8 24.6 76 3.3 N 4 11 2 6 1012.7 1012.4 1.8
22/05:30pm 29.7 35.5 25.7 79 2.8 N 6 13 3 7 1012.5 1012.2 1.8
22/05:00pm 30.1 35.6 25.6 77 3.2 NNE 7 15 4 8 1012.3 1012.0 1.8
22/04:30pm 29.9 36.2 25.9 79 2.8 NNE 4 15 2 8 1012.2 1011.9 1.8
22/04:00pm 29.1 34.5 25.5 81 2.5 N 7 17 4 9 1012.1 1011.8 1.8
22/03:30pm 27.4 32.8 26.0 92 1.0 NNW 9 17 5 9 1012.1 1011.8 1.8
22/03:18pm 28.1 29.7 23.2 74 3.4 N 20 43 11 23 1012.2 1011.9 0.6
22/03:00pm 33.2 37.3 25.2 63 5.7 N 13 24 7 13 1011.5 1011.2 0.2
22/02:30pm 32.0 37.6 26.3 72 4.1 N 9 20 5 11 1011.5 1011.2 0.2
22/02:00pm 32.5 37.2 25.6 67 4.9 NNW 11 24 6 13 1011.7 1011.4 0.2
22/01:30pm 31.8 36.4 25.9 71 4.2 NW 13 26 7 14 1011.7 1011.4 0.2
22/01:00pm 34.2 38.0 25.9 62 6.0 N 17 30 9 16 1011.7 1011.4 0.2
22/12:30pm 33.9 37.1 25.6 62 5.9 N 19 28 10 15 1011.8 1011.5 0.2
22/12:00pm 33.5 37.2 25.7 63 5.6 NNE 17 30 9 16 1012.0 1011.7 0.2
22/11:30am 32.8 36.2 25.9 67 4.9 N 19 32 10 17 1012.2 1011.9 0.2
22/11:00am 32.8 36.4 25.6 66 5.1 NNE 17 28 9 15 1012.6 1012.3 0.2
22/10:30am 32.5 36.6 26.3 70 4.5 NNE 17 26 9 14 1012.6 1012.3 0.2
22/10:00am 31.2 35.4 26.5 76 3.4 NE 17 28 9 15 1012.7 1012.4 0.2
22/09:30am 30.8 34.7 26.1 76 3.4 NE 17 33 9 18 1012.7 1012.4 0.2
22/09:00am 29.9 34.2 26.7 83 2.3 ENE 17 24 9 13 1012.6 1012.3 8.0
22/08:30am 29.5 35.1 26.9 86 1.9 NE 11 17 6 9 1012.7 1012.4 8.0
22/08:00am 28.2 33.7 26.8 92 1.0 ENE 11 15 6 8 1012.5 1012.2 8.0
22/07:30am 27.9 33.2 26.5 92 1.0 NE 11 20 6 11 1012.0 1011.7 8.0
22/07:00am 27.8 33.1 26.4 92 1.0 NE 11 17 6 9 1011.6 1011.3 8.0
22/06:30am 26.8 32.5 25.9 95 0.6 NE 7 13 4 7 1011.4 1011.1 8.0
22/06:00am 26.6 32.4 25.7 95 0.6 NNE 6 11 3 6 1011.1 1010.8 8.0
22/05:30am 26.8 31.5 25.6 93 0.8 ENE 11 19 6 10 1010.4 1010.1 7.4
22/05:00am 26.6 32.5 25.9 96 0.5 NE 6 11 3 6 1010.0 1009.7 7.4
22/04:30am 26.6 31.8 25.7 95 0.6 ENE 9 15 5 8 1009.7 1009.4 7.0
22/04:00am 26.6 32.3 25.9 96 0.5 NE 7 11 4 6 1009.5 1009.2 7.0
22/03:30am 26.5 32.1 25.8 96 0.5 ENE 7 13 4 7 1008.9 1008.6 7.0
22/03:00am 26.5 31.8 25.8 96 0.5 NE 9 15 5 8 1008.6 1008.3 7.0
22/02:30am 26.3 31.9 25.8 97 0.4 NE 7 11 4 6 1008.5 1008.2 7.0
22/02:00am 26.2 30.5 25.5 96 0.5 NE 13 20 7 11 1008.6 1008.3 7.0
22/01:30am 26.3 31.7 25.4 95 0.6 NNE 7 19 4 10 1008.9 1008.6 6.6
22/01:00am 26.4 31.1 25.5 95 0.6 NE 11 20 6 11 1008.9 1008.6 6.6
22/12:30am 26.1 30.7 25.4 96 0.5 ENE 11 17 6 9 1008.8 1008.5 6.2
22/12:00am 26.1 31.6 25.6 97 0.4 ENE 7 13 4 7 1009.0 1008.7 6.0
 
Date/Time
WST
Temp
°C
App
Temp
°C
Dew
Point
°C
Rel
Hum
%
Delta-T
°C
Wind Press
QNH
hPa
Press
MSL
hPa
Rain since
9am
mm
Dir  Spd
km/h
Gust
km/h
Spd
kts
Gust
kts
21/11:30pm 26.2 30.9 25.5 96 0.5 ENE 11 19 6 10 1009.2 1008.9 5.6
21/11:00pm 26.4 31.1 25.5 95 0.6 ENE 11 17 6 9 1009.3 1009.0 5.2
21/10:30pm 26.4 31.4 25.4 94 0.7 E 9 17 5 9 1009.3 1009.0 5.2
21/10:00pm 26.3 31.4 25.6 96 0.5 ENE 9 13 5 7 1009.4 1009.1 5.2
21/09:30pm 26.5 31.9 25.5 94 0.7 ENE 7 11 4 6 1009.3 1009.0 4.6
21/09:00pm 26.7 32.3 25.7 94 0.7 ENE 7 11 4 6 1009.3 1009.0 4.0
21/08:30pm 26.5 32.0 25.6 95 0.6 E 7 11 4 6 1008.8 1008.5 4.0
21/08:00pm 26.5 32.0 25.6 95 0.6 E 7 13 4 7 1008.3 1008.0 4.0
21/07:30pm 26.6 32.2 25.4 93 0.8 E 6 15 3 8 1007.8 1007.5 3.8
21/07:00pm 26.9 32.2 25.3 91 1.1 E 7 13 4 7 1007.4 1007.1 3.4
21/06:30pm 27.0 32.6 25.4 91 1.1 ENE 6 9 3 5 1006.9 1006.6 3.2
21/06:00pm 26.9 32.2 25.3 91 1.1 NE 7 15 4 8 1006.3 1006.0 3.2
21/05:30pm 26.8 32.1 25.2 91 1.1 ENE 7 15 4 8 1005.8 1005.5 3.2
21/05:00pm 27.3 31.1 24.7 86 1.8 ENE 13 20 7 11 1005.8 1005.5 3.2
21/04:30pm 28.5 32.1 24.3 78 2.9 NE 13 19 7 10 1005.4 1005.1 3.2
21/04:00pm 29.0 31.2 24.3 76 3.3 NE 20 32 11 17 1004.9 1004.6 3.2
21/03:30pm 28.9 32.3 25.3 81 2.5 ENE 17 24 9 13 1004.8 1004.5 3.2
21/03:00pm 30.3 33.2 24.4 70 4.1 NE 17 24 9 13 1004.9 1004.6 3.0
21/02:30pm 31.1 32.5 24.2 66 4.8 ENE 24 39 13 21 1004.7 1004.4 3.0
21/02:00pm 31.0 33.6 24.6 68 4.5 ENE 19 32 10 17 1004.7 1004.4 3.0
21/01:30pm 30.0 32.7 25.1 75 3.5 ENE 20 41 11 22 1005.2 1004.9 3.0
21/01:00pm 29.0 33.0 25.6 82 2.4 ENE 15 24 8 13 1005.4 1005.1 3.0
21/12:30pm 27.9 32.5 25.9 89 1.4 ENE 13 20 7 11 1005.7 1005.4 3.0
21/12:00pm 30.9 35.2 25.5 73 3.8 E 13 20 7 11 1006.0 1005.7 0.0
21/11:30am 28.7 31.4 25.1 81 2.5 E 20 37 11 20 1006.6 1006.3 0.0
21/11:00am 30.4 32.7 24.5 70 4.1 E 20 43 11 23 1006.7 1006.4 0.0
21/10:30am 31.1 32.9 24.2 66 4.8 E 22 39 12 21 1006.4 1006.1 0.0
21/10:00am 31.6 34.1 24.5 66 5.0 ESE 19 33 10 18 1006.6 1006.3 0.0
21/09:30am 31.1 33.4 24.5 68 4.6 ESE 20 35 11 19 1007.1 1006.8 0.0
21/09:00am 30.8 33.5 24.2 68 4.6 ESE 17 28 9 15 1007.3 1007.0 11.4
21/08:30am 29.1 32.3 24.4 76 3.3 ESE 15 30 8 16 1007.0 1006.7 11.4
21/08:00am 28.5 32.8 24.9 81 2.5 SE 11 19 6 10 1006.8 1006.5 11.4
21/07:30am 28.0 32.7 25.0 84 2.1 SE 9 19 5 10 1006.4 1006.1 11.4
21/07:00am 27.5 33.0 25.3 88 1.5 SSE 6 20 3 11 1006.2 1005.9 11.4
21/06:30am 26.7 31.1 24.5 88 1.5 SSE 9 17 5 9 1006.4 1006.1 11.4
21/06:00am 25.3 31.5 24.6 96 0.5 CALM 0 6 0 3 1006.2 1005.9 11.4
21/05:30am 25.1 30.4 24.4 96 0.5 SW 4 7 2 4 1005.9 1005.6 11.4
21/05:00am 25.0 29.2 24.1 95 0.6 S 9 20 5 11 1005.7 1005.4 11.0
21/04:30am 25.3 30.4 24.1 93 0.8 S 4 9 2 5 1005.8 1005.5 8.4
21/04:00am 25.3 29.4 23.9 92 1.0 S 9 20 5 11 1006.0 1005.7 8.4
21/03:30am 25.6 29.7 24.0 91 1.1 SSE 9 15 5 8 1006.6 1006.3 7.6
21/03:00am 26.6 31.1 23.9 85 1.9 SSE 7 13 4 7 1006.4 1006.1 6.4
21/02:30am 28.4 32.4 23.8 76 3.2 SSW 9 15 5 8 1006.0 1005.7 6.2
21/02:00am 28.0 32.5 23.6 77 3.0 SSW 6 11 3 6 1006.4 1006.1 6.2
21/01:30am 27.4 32.3 24.3 83 2.1 SW 6 9 3 5 1006.7 1006.4 6.2
21/01:00am 27.7 32.2 23.7 79 2.8 SW 6 7 3 4 1007.1 1006.8 6.2
21/12:30am 27.6 32.2 23.8 80 2.6 SSW 6 9 3 5 1007.1 1006.8 6.2
21/12:00am 27.8 33.6 24.6 83 2.2 SW 2 6 1 3 1008.0 1007.7 6.0
 
Date/Time
WST
Temp
°C
App
Temp
°C
Dew
Point
°C
Rel
Hum
%
Delta-T
°C
Wind Press
QNH
hPa
Press
MSL
hPa
Rain since
9am
mm
Dir  Spd
km/h
Gust
km/h
Spd
kts
Gust
kts
20/11:30pm 28.1 34.4 24.7 82 2.4 CALM 0 0 0 0 1009.0 1008.7 6.0
20/11:00pm 28.1 34.1 24.9 83 2.2 SW 2 6 1 3 1009.5 1009.2 6.0
20/10:30pm 28.1 33.4 24.3 80 2.6 SSW 4 9 2 5 1010.0 1009.7 6.0

Other formats

Comma delimited format used in spreadsheet applications
http://www.bom.gov.au/fwo/IDW60801/IDW60801.95208.axf

JavaScript Object Notation format (JSON) in row-major order
http://www.bom.gov.au/fwo/IDW60801/IDW60801.95208.json

Data quality

Most of these data are generated automatically and are frequently updated. Quality checks on data are not normally performed. It is possible for incorrect values to appear. Refer to information at About Latest Weather Observations and please check the disclaimer before using these data.